Terminal Aerodrome Forecast
Issued by NWS Tampa Bay Area, FL

Home | Current Version | Previous Version | Text Only | Print | Product List | Glossary On
Versions: 1 2 3 4 5 6 7 8 9 10 11 12 13 14 15 16 17 18 19 20 21 22 23 24 25 26
637
FTUS42 KTBW 251120
TAFTPA
TAF
KTPA 251120Z 2512/2612 11004KT P6SM SKC
     FM251400 14005KT P6SM FEW030 SCT250
     FM251800 19007KT P6SM VCTS SCT035CB SCT080 BKN250
     FM260200 16003KT P6SM FEW035 SCT250=

USA.gov is the U.S. government's official web portal to all federal, state and local government web resources and services.